Latest Weather Observations for Roma

IDQ60801

Issued at 7:32 pm EST Saturday 6 February 2016 (issued every 30 minutes, with the page automatically refreshed every 10 minutes)

About weather observations | Map of weather stations | Latest weather observations for QLD | Other Formats
Station Details ID: 043091 Name: ROMA AIRPORT Lat: -26.55 Lon: 148.77 Height: 307.38 m
Data from the previous 72 hours. | See also: Recent months at Roma
Date/Time
EST
Temp
°C
App
Temp
°C
Dew
Point
Rel
Hum
%
Delta-T
°C
Wind Press
QNH
hPa
Press
MSL
hPa
Rain
since 9 am
mm
Dir
 
Spd
km/h
Gust
km/h
Spd
kts
Gust
kts
06/07:30pm 20.5 19.7 19.2 92 0.8 SE 22 30 12 16 1011.5 1009.6 49.2
06/07:22pm 20.5 20.1 19.3 93 0.8 SE 20 30 11 16 1011.5 1009.6 49.2
06/07:00pm 20.3 19.8 19.1 93 0.8 SE 20 28 11 15 1011.3 1009.4 49.2
06/06:41pm 20.2 19.2 18.9 92 0.8 SE 22 30 12 16 1011.2 1009.3 49.0
06/06:30pm 20.3 18.9 18.8 91 1.0 SE 24 33 13 18 1011.0 1009.0 48.8
06/06:00pm 20.6 20.3 19.6 94 0.6 SSE 20 28 11 15 1010.7 1008.7 47.8
06/05:44pm 20.7 20.1 19.7 94 0.6 SSE 22 32 12 17 1010.0 1008.1 47.2
06/05:32pm 20.8 20.2 19.8 94 0.6 SSE 22 30 12 16 1010.1 1008.2 46.6
06/05:30pm 20.8 20.2 19.8 94 0.6 SSE 22 30 12 16 1010.1 1008.2 46.4
06/05:00pm 20.9 20.9 20.1 95 0.5 SSE 20 26 11 14 1010.1 1008.2 45.6
06/04:52pm 20.8 20.7 20.0 95 0.5 SSE 20 30 11 16 1009.9 1008.0 45.6
06/04:36pm 20.8 20.7 20.0 95 0.5 SSE 20 28 11 15 1009.8 1007.9 45.0
06/04:34pm 20.9 20.9 20.1 95 0.5 SSE 20 28 11 15 1009.9 1008.0 44.8
06/04:30pm 20.9 20.9 20.1 95 0.5 SSE 20 28 11 15 1009.9 1008.0 44.4
06/04:18pm 20.7 20.8 19.9 95 0.5 SSE 19 30 10 16 1009.9 1008.0 43.6
06/04:08pm 20.9 20.9 20.1 95 0.5 SSE 20 28 11 15 1009.8 1007.9 42.8
06/04:00pm 20.7 20.8 19.9 95 0.5 SSE 19 26 10 14 1009.8 1007.9 42.4
06/03:30pm 20.6 20.6 19.8 95 0.5 SSE 19 24 10 13 1009.9 1008.0 38.6
06/03:21pm 20.6 20.4 19.8 95 0.5 SSE 20 28 11 15 1009.8 1007.9 37.2
06/03:00pm 20.7 20.6 19.9 95 0.5 SE 20 26 11 14 1009.7 1007.8 35.4
06/02:57pm 20.6 20.6 19.8 95 0.5 SE 19 26 10 14 1009.7 1007.8 35.2
06/02:30pm 20.5 20.3 19.7 95 0.5 SSE 20 26 11 14 1010.1 1008.2 32.4
06/02:00pm 20.5 20.8 19.7 95 0.5 SSE 17 24 9 13 1010.3 1008.3 28.0
06/01:55pm 20.6 21.0 19.8 95 0.5 SSE 17 24 9 13 1010.3 1008.3 27.2
06/01:52pm 20.5 20.8 19.7 95 0.5 SSE 17 24 9 13 1010.3 1008.3 26.6
06/01:42pm 20.5 20.3 19.7 95 0.5 SE 20 28 11 15 1010.0 1008.1 25.6
06/01:30pm 20.3 20.0 19.5 95 0.5 SE 20 28 11 15 1010.1 1008.2 24.6
06/01:00pm 20.1 19.7 19.3 95 0.5 SSE 20 28 11 15 1010.8 1008.8 20.4
06/12:54pm 20.1 19.9 19.3 95 0.5 SSE 19 24 10 13 1011.0 1009.0 19.2
06/12:30pm 19.9 19.3 18.9 94 0.6 SSE 20 28 11 15 1010.9 1008.9 14.6
06/12:00pm 20.2 19.5 18.7 91 1.0 SE 20 28 11 15 1011.4 1009.5 5.8
06/11:55am 20.3 19.7 18.8 91 1.0 SE 20 28 11 15 1011.4 1009.5 4.8
06/11:30am 20.3 19.7 18.8 91 1.0 SE 20 33 11 18 1011.4 1009.5 3.8
06/11:00am 20.0 18.8 18.5 91 0.9 SE 22 32 12 17 1011.5 1009.6 2.4
06/10:30am 19.8 19.1 18.3 91 0.9 SE 19 28 10 15 1011.7 1009.8 1.8
06/10:19am 19.7 19.4 18.2 91 0.9 SE 17 24 9 13 1011.7 1009.8 1.8
06/10:03am 19.7 19.0 18.2 91 0.9 SE 19 26 10 14 1011.7 1009.8 1.6
06/10:00am 19.7 19.0 18.2 91 0.9 SE 19 26 10 14 1011.7 1009.8 1.6
06/09:54am 19.7 19.4 18.2 91 0.9 SE 17 24 9 13 1011.6 1009.7 1.4
06/09:39am 19.7 19.0 18.2 91 0.9 SE 19 26 10 14 1011.7 1009.8 1.0
06/09:30am 19.7 19.0 18.2 91 0.9 SE 19 24 10 13 1011.7 1009.8 0.6
06/09:00am 19.7 19.0 18.2 91 0.9 SSE 19 24 10 13 1011.7 1009.8 11.8
06/08:30am 20.0 20.2 18.5 91 0.9 SSE 15 26 8 14 1011.7 1009.8 11.2
06/08:16am 20.1 19.9 18.6 91 0.9 SSE 17 22 9 12 1011.5 1009.6 10.6
06/08:00am 20.3 20.1 18.6 90 1.1 SE 17 22 9 12 1011.3 1009.4 9.8
06/07:30am 20.3 20.8 18.4 89 1.2 SE 13 17 7 9 1011.4 1009.5 9.6
06/07:00am 20.3 20.0 18.2 88 1.3 SE 17 20 9 11 1010.9 1008.9 9.0
06/06:30am 20.5 20.6 18.4 88 1.3 SE 15 17 8 9 1010.7 1008.7 8.8
06/06:00am 20.7 20.9 18.6 88 1.3 ESE 15 19 8 10 1010.1 1008.2 8.8
06/05:30am 20.9 21.3 19.0 89 1.2 SE 15 20 8 11 1009.6 1007.7 8.8
06/05:00am 20.9 21.4 19.2 90 1.1 SE 15 19 8 10 1009.2 1007.3 8.6
06/04:30am 20.9 21.5 19.4 91 1.0 SE 15 20 8 11 1009.1 1007.2 8.6
06/04:00am 20.9 21.9 19.4 91 1.0 SE 13 19 7 10 1009.1 1007.2 8.6
06/03:30am 20.8 21.2 19.1 90 1.1 SE 15 19 8 10 1008.9 1007.0 8.6
06/03:00am 20.8 21.3 19.3 91 1.0 SE 15 19 8 10 1009.1 1007.2 8.6
06/02:30am 20.9 22.2 19.4 91 1.0 SE 11 15 6 8 1009.3 1007.4 8.2
06/02:00am 20.9 23.0 19.4 91 1.0 SE 7 9 4 5 1009.4 1007.5 8.0
06/01:30am 20.9 22.5 19.2 90 1.1 SSE 9 13 5 7 1009.6 1007.7 7.8
06/01:00am 20.8 22.9 19.3 91 1.0 SE 7 9 4 5 1009.6 1007.7 7.8
06/12:30am 20.8 22.4 19.1 90 1.1 ESE 9 11 5 6 1010.1 1008.2 7.6
06/12:00am 20.9 22.1 19.0 89 1.2 ENE 11 15 6 8 1010.3 1008.3 7.4
 
Date/Time
EST
Temp
°C
App
Temp
°C
Dew
Point
Rel
Hum
%
Delta-T
°C
Wind Press
QNH
hPa
Press
MSL
hPa
Rain
since 9 am
mm
Dir
 
Spd
km/h
Gust
km/h
Spd
kts
Gust
kts
05/11:30pm 21.1 21.9 19.0 88 1.3 NE 13 17 7 9 1010.5 1008.5 7.2
05/11:00pm 21.0 22.1 18.9 88 1.3 NE 11 17 6 9 1010.6 1008.6 6.8
05/10:30pm 21.1 22.3 19.0 88 1.3 NE 11 15 6 8 1010.9 1008.9 6.6
05/10:00pm 21.0 21.4 18.9 88 1.3 NE 15 20 8 11 1010.6 1008.6 6.2
05/09:30pm 20.8 21.1 18.7 88 1.3 NNE 15 20 8 11 1010.4 1008.4 6.2
05/09:00pm 21.0 20.8 18.6 86 1.5 NE 17 24 9 13 1010.5 1008.5 6.2
05/08:30pm 20.8 21.4 18.6 87 1.4 ENE 13 15 7 8 1010.6 1008.6 6.0
05/08:00pm 21.2 22.3 18.8 86 1.5 ENE 11 17 6 9 1010.3 1008.3 6.0
05/07:30pm 21.6 23.5 19.7 89 1.2 NE 9 13 5 7 1009.9 1008.0 5.2
05/07:00pm 21.6 23.1 19.7 89 1.2 ENE 11 15 6 8 1009.8 1007.9 5.2
05/06:55pm 21.5 22.6 19.6 89 1.2 E 13 17 7 9 1009.8 1007.9 5.2
05/06:30pm 21.5 23.0 19.8 90 1.1 E 11 17 6 9 1009.4 1007.5 5.2
05/06:00pm 21.5 22.6 19.6 89 1.2 ESE 13 17 7 9 1009.1 1007.2 5.0
05/05:30pm 21.6 21.9 19.5 88 1.4 E 17 26 9 14 1008.9 1007.0 4.4
05/05:23pm 21.6 21.8 19.3 87 1.5 E 17 26 9 14 1008.7 1006.8 4.4
05/05:04pm 21.6 21.5 19.5 88 1.4 E 19 28 10 15 1008.6 1006.7 4.4
05/05:00pm 21.6 21.3 19.5 88 1.4 E 20 30 11 16 1008.6 1006.7 4.4
05/04:42pm 21.4 20.7 19.5 89 1.2 E 22 28 12 15 1008.7 1006.8 4.4
05/04:30pm 21.6 21.5 19.9 90 1.1 ESE 20 28 11 15 1008.6 1006.7 4.2
05/04:19pm 21.6 22.0 19.9 90 1.1 ESE 17 22 9 12 1008.6 1006.7 4.0
05/04:00pm 21.6 21.5 19.9 90 1.1 SE 20 30 11 16 1008.6 1006.7 3.6
05/03:30pm 21.9 21.4 20.0 89 1.2 ESE 22 32 12 17 1008.6 1006.7 2.8
05/03:09pm 21.7 20.9 20.0 90 1.1 SE 24 32 13 17 1008.6 1006.7 2.4
05/03:00pm 21.6 20.6 19.7 89 1.2 SE 24 33 13 18 1008.7 1006.8 2.2
05/02:30pm 21.8 21.7 19.9 89 1.2 SE 20 24 11 13 1008.9 1007.0 1.0
05/02:28pm 21.9 21.8 20.0 89 1.2 SE 20 24 11 13 1008.9 1007.0 1.0
05/02:27pm 21.8 21.7 19.9 89 1.2 SE 20 24 11 13 1008.9 1007.0 0.8
05/02:00pm 22.3 22.8 20.0 87 1.5 SE 17 22 9 12 1009.1 1007.2 0.4
05/01:30pm 22.8 22.7 20.0 84 1.8 ESE 20 26 11 14 1009.1 1007.2 0.0
05/01:00pm 22.9 22.8 19.9 83 2.0 ESE 20 24 11 13 1009.4 1007.5 0.0
05/12:30pm 23.3 23.7 19.9 81 2.2 ESE 17 24 9 13 1009.5 1007.6 0.0
05/12:00pm 24.1 23.6 19.2 74 3.2 ESE 20 26 11 14 1009.7 1007.8 0.0
05/11:43am 24.0 23.6 19.3 75 3.0 ESE 20 24 11 13 1009.8 1007.9 0.0
05/11:30am 24.0 23.9 19.5 76 2.9 ESE 19 26 10 14 1009.9 1008.0 0.0
05/11:00am 23.4 22.4 18.9 76 2.9 ESE 22 28 12 15 1010.1 1008.2 0.0
05/10:30am 23.3 22.8 19.9 81 2.2 SE 22 30 12 16 1010.3 1008.3 0.0
05/10:00am 22.8 22.3 19.2 80 2.3 ESE 20 26 11 14 1010.3 1008.3 0.0
05/09:30am 22.4 22.0 18.8 80 2.3 SE 19 26 10 14 1010.0 1008.1 0.0
05/09:13am 22.0 21.8 18.6 81 2.2 SE 17 26 9 14 1009.9 1008.0 0.0
05/09:00am 21.9 21.9 18.9 83 1.9 SE 17 22 9 12 1009.7 1007.8 7.4
05/08:30am 21.2 22.2 18.6 85 1.6 SE 11 15 6 8 1009.6 1007.7 7.4
05/08:00am 20.5 21.7 18.3 87 1.4 E 9 11 5 6 1009.5 1007.6 7.2
05/07:30am 20.0 20.2 17.6 86 1.5 E 13 19 7 10 1009.3 1007.4 7.2
05/07:00am 19.7 19.0 17.3 86 1.5 ESE 17 20 9 11 1008.8 1006.9 7.2
05/06:30am 19.7 18.3 16.5 82 2.0 E 19 24 10 13 1008.4 1006.5 7.2
05/06:00am 19.6 18.0 16.4 82 2.0 E 20 28 11 15 1007.9 1005.9 7.2
05/05:30am 19.6 18.8 17.0 85 1.6 ESE 17 22 9 12 1007.5 1005.5 7.2
05/05:00am 19.9 19.8 17.9 88 1.3 ESE 15 20 8 11 1007.2 1005.2 7.2
05/04:30am 20.7 21.5 19.0 90 1.1 E 13 20 7 11 1006.9 1004.9 7.0
05/04:08am 20.8 20.5 19.1 90 1.1 E 19 26 10 14 1006.5 1004.6 6.8
05/04:06am 20.9 20.6 19.2 90 1.1 E 19 26 10 14 1006.5 1004.6 6.8
05/04:00am 20.9 20.4 19.2 90 1.1 E 20 24 11 13 1006.5 1004.6 6.8
05/03:30am 21.5 22.0 20.0 91 1.0 ESE 17 22 9 12 1006.6 1004.7 4.8
05/03:09am 21.8 22.7 20.1 90 1.1 SE 15 20 8 11 1006.5 1004.6 3.4
05/03:01am 22.0 23.7 20.1 89 1.2 SE 11 17 6 9 1006.5 1004.6 2.8
05/03:00am 22.0 23.7 20.1 89 1.2 SE 11 15 6 8 1006.5 1004.6 2.6
05/02:52am 22.3 24.7 20.0 87 1.5 E 7 11 4 6 1006.5 1004.6 2.2
05/02:43am 22.4 23.8 19.6 84 1.8 ENE 11 17 6 9 1006.5 1004.6 1.6
05/02:30am 23.2 24.2 19.4 79 2.5 ENE 13 17 7 9 1006.5 1004.6 0.0
05/02:05am 23.5 23.7 19.4 78 2.7 ENE 17 24 9 13 1006.4 1004.5 0.0
05/02:00am 23.5 23.8 19.6 79 2.5 ENE 17 24 9 13 1006.3 1004.4 0.0
05/01:30am 23.7 23.5 19.8 79 2.5 ENE 20 32 11 17 1006.5 1004.6 0.0
05/01:00am 24.0 22.6 19.7 77 2.8 ENE 26 37 14 20 1006.2 1004.3 0.0
05/12:30am 24.9 25.0 20.4 76 3.0 ENE 20 28 11 15 1006.5 1004.6 0.0
05/12:00am 25.4 26.5 21.3 78 2.7 E 17 20 9 11 1007.0 1005.0 0.0
 
Date/Time
EST
Temp
°C
App
Temp
°C
Dew
Point
Rel
Hum
%
Delta-T
°C
Wind Press
QNH
hPa
Press
MSL
hPa
Rain
since 9 am
mm
Dir
 
Spd
km/h
Gust
km/h
Spd
kts
Gust
kts
04/11:30pm 25.6 27.6 21.5 78 2.8 ESE 13 19 7 10 1007.1 1005.1 0.0
04/11:00pm 26.0 27.8 21.2 75 3.2 ESE 13 20 7 11 1007.1 1005.1 0.0
04/10:30pm 25.9 28.2 21.3 76 3.1 SSE 11 13 6 7 1007.1 1005.1 0.0
04/10:00pm 26.0 29.2 22.3 80 2.5 SW 9 9 5 5 1006.9 1004.9 0.0
04/09:30pm 26.2 29.7 22.1 78 2.8 WSW 7 7 4 4 1006.6 1004.7 0.0
04/09:16pm 26.3 30.4 22.2 78 2.8 SSW 4 6 2 3 1006.5 1004.6 0.0
04/09:00pm 26.4 29.8 21.6 75 3.2 SSW 6 7 3 4 1006.5 1004.6 0.0
04/08:57pm 26.4 29.9 21.8 76 3.1 SSW 6 7 3 4 1006.5 1004.6 0.0
04/08:30pm 26.4 29.6 21.2 73 3.5 SSW 6 6 3 3 1006.2 1004.3 0.0
04/08:00pm 26.9 29.2 20.7 69 4.1 SW 9 13 5 7 1006.0 1004.1 0.0
04/07:30pm 27.4 28.7 20.2 65 4.8 SW 13 15 7 8 1005.7 1003.8 0.0
04/07:00pm 27.9 29.0 20.5 64 4.9 SW 15 20 8 11 1005.4 1003.5 0.0
04/06:30pm 28.6 29.2 20.3 60 5.5 SW 17 20 9 11 1004.9 1002.9 0.0
04/06:00pm 29.4 30.1 20.5 58 6.0 SW 17 22 9 12 1004.6 1002.6 0.0
04/05:30pm 30.0 29.2 20.0 55 6.7 SW 24 32 13 17 1004.2 1002.2 0.0
04/05:00pm 31.2 30.7 19.2 48 7.9 SSW 20 30 11 16 1003.9 1001.9 0.0
04/04:30pm 31.6 31.5 19.9 50 7.8 SSW 20 28 11 15 1003.7 1001.7 0.0
04/04:00pm 32.1 32.4 20.4 50 7.9 SSW 19 28 10 15 1003.8 1001.8 0.0
04/03:30pm 32.1 32.5 21.0 52 7.5 SW 20 28 11 15 1004.0 1002.0 0.0
04/03:00pm 32.1 32.1 21.0 52 7.5 SW 22 32 12 17 1004.2 1002.2 0.0
04/02:30pm 31.3 31.6 21.5 56 6.7 SW 22 30 12 16 1004.6 1002.6 0.0
04/02:00pm 31.5 31.3 19.8 49 7.8 SW 20 32 11 17 1005.1 1003.1 0.0
04/01:30pm 31.7 32.0 20.3 50 7.6 SSW 19 30 10 16 1005.6 1003.7 0.0
04/01:00pm 31.0 31.7 21.2 56 6.7 SW 19 26 10 14 1005.7 1003.8 0.0
04/12:30pm 30.2 31.3 20.4 55 6.6 SSW 15 20 8 11 1005.9 1004.0 0.0
04/12:00pm 30.4 31.6 20.6 55 6.6 SW 15 24 8 13 1006.0 1004.1 0.0
04/11:30am 30.1 31.2 21.2 59 6.0 SSW 17 26 9 14 1006.2 1004.3 0.0
04/11:00am 29.6 30.0 20.7 58 6.0 SW 19 24 10 13 1006.4 1004.5 0.0
04/10:30am 29.0 28.9 19.6 57 6.2 SSW 19 26 10 14 1006.4 1004.5 0.0
04/10:00am 28.8 29.4 20.3 60 5.7 SW 17 26 9 14 1006.4 1004.5 0.0
04/09:30am 28.1 28.3 19.3 58 5.8 SSW 17 24 9 13 1006.3 1004.4 0.0
04/09:00am 27.9 28.0 19.9 61 5.3 SSW 19 24 10 13 1006.1 1004.2 0.4
04/08:30am 26.7 25.6 18.6 61 5.2 SSW 22 30 12 16 1005.9 1004.0 0.4
04/08:00am 26.6 25.9 18.7 62 5.1 SW 20 28 11 15 1005.9 1004.0 0.4
04/07:30am 25.7 27.3 20.7 74 3.3 WSW 13 17 7 9 1005.9 1004.0 0.4
04/07:00am 25.0 26.6 20.7 77 2.9 WNW 13 20 7 11 1005.8 1003.9 0.4
04/06:30am 24.6 26.9 21.3 82 2.2 WNW 11 15 6 8 1005.6 1003.7 0.4
04/06:00am 24.0 25.9 21.3 85 1.8 WNW 13 17 7 9 1005.4 1003.5 0.4
04/05:30am 23.7 25.5 21.2 86 1.7 WNW 13 15 7 8 1005.0 1003.0 0.4
04/05:00am 23.9 26.5 21.2 85 1.8 NW 9 11 5 6 1004.9 1002.9 0.4
04/04:30am 24.3 26.5 21.8 86 1.7 WNW 13 17 7 9 1004.4 1002.4 0.4
04/04:00am 23.9 27.4 21.8 88 1.4 W 6 9 3 5 1004.1 1002.1 0.4
04/03:30am 23.8 27.1 21.9 89 1.3 WNW 7 9 4 5 1003.9 1001.9 0.4
04/03:00am 23.6 26.8 21.7 89 1.3 NNW 7 11 4 6 1004.1 1002.1 0.4
04/02:30am 24.1 27.0 22.4 90 1.2 N 11 13 6 7 1004.2 1002.2 0.4
04/02:00am 24.2 27.4 22.3 89 1.3 N 9 11 5 6 1004.1 1002.1 0.4
04/01:30am 24.1 27.6 22.2 89 1.3 N 7 9 4 5 1004.4 1002.4 0.4
04/01:00am 24.1 27.2 22.2 89 1.3 N 9 11 5 6 1004.6 1002.6 0.4
04/12:30am 24.6 28.5 22.5 88 1.4 N 6 9 3 5 1004.8 1002.8 0.4
04/12:00am 24.5 27.7 22.4 88 1.4 N 9 13 5 7 1005.1 1003.1 0.4
 
Date/Time
EST
Temp
°C
App
Temp
°C
Dew
Point
Rel
Hum
%
Delta-T
°C
Wind Press
QNH
hPa
Press
MSL
hPa
Rain
since 9 am
mm
Dir
 
Spd
km/h
Gust
km/h
Spd
kts
Gust
kts
03/11:30pm 24.5 27.6 22.2 87 1.6 N 9 13 5 7 1005.1 1003.1 0.4
03/11:00pm 24.6 29.3 21.9 85 1.8 CALM 0 7 0 4 1005.3 1003.4 0.4
03/10:30pm 25.0 27.8 22.3 85 1.8 WNW 11 15 6 8 1005.3 1003.4 0.4
03/10:00pm 24.9 28.5 22.0 84 2.0 N 6 9 3 5 1005.5 1003.6 0.4
03/09:30pm 25.2 28.6 21.7 81 2.4 NNW 6 9 3 5 1005.4 1003.5 0.4
03/09:00pm 25.3 27.9 22.0 82 2.2 WNW 11 13 6 7 1005.3 1003.4 0.4
03/08:30pm 25.9 28.1 22.6 82 2.3 WNW 15 19 8 10 1005.4 1003.5 0.4
03/08:00pm 26.2 27.7 22.7 81 2.4 WNW 19 24 10 13 1005.3 1003.4 0.2

Other Formats:

Comma delimited format used in spreadsheet applications
http://www.bom.gov.au/fwo/IDQ60801/IDQ60801.94515.axf

JavaScript Object Notation format (JSON) in row-major order
http://www.bom.gov.au/fwo/IDQ60801/IDQ60801.94515.json